sensor_id;sensor_type;location;lat;lon;timestamp;P1;durP1;ratioP1;P2;durP2;ratioP2
10719;SDS011;5411;58.386;15.560;2023-01-16T00:02:00;1.23;;;0.80;;
10719;SDS011;5411;58.386;15.560;2023-01-16T00:04:29;1.40;;;0.80;;
10719;SDS011;5411;58.386;15.560;2023-01-16T00:07:00;0.83;;;0.80;;
10719;SDS011;5411;58.386;15.560;2023-01-16T00:09:28;1.50;;;0.87;;
10719;SDS011;5411;58.386;15.560;2023-01-16T00:11:57;0.80;;;0.60;;
10719;SDS011;5411;58.386;15.560;2023-01-16T00:14:25;1.10;;;1.00;;
10719;SDS011;5411;58.386;15.560;2023-01-16T00:16:57;0.90;;;0.83;;
10719;SDS011;5411;58.386;15.560;2023-01-16T00:19:26;1.37;;;1.33;;
10719;SDS011;5411;58.386;15.560;2023-01-16T00:21:54;2.67;;;0.93;;
10719;SDS011;5411;58.386;15.560;2023-01-16T00:24:24;1.07;;;0.90;;
10719;SDS011;5411;58.386;15.560;2023-01-16T00:26:52;0.83;;;0.83;;
10719;SDS011;5411;58.386;15.560;2023-01-16T00:29:21;1.60;;;0.90;;
10719;SDS011;5411;58.386;15.560;2023-01-16T00:31:49;1.03;;;1.03;;
10719;SDS011;5411;58.386;15.560;2023-01-16T00:34:27;1.03;;;1.03;;
10719;SDS011;5411;58.386;15.560;2023-01-16T00:36:57;1.60;;;0.80;;
10719;SDS011;5411;58.386;15.560;2023-01-16T00:39:25;2.30;;;1.37;;
10719;SDS011;5411;58.386;15.560;2023-01-16T00:41:53;0.77;;;0.77;;
10719;SDS011;5411;58.386;15.560;2023-01-16T00:44:21;0.90;;;0.73;;
10719;SDS011;5411;58.386;15.560;2023-01-16T00:46:50;0.93;;;0.73;;
10719;SDS011;5411;58.386;15.560;2023-01-16T00:49:24;2.07;;;1.20;;
10719;SDS011;5411;58.386;15.560;2023-01-16T00:51:56;0.60;;;0.60;;
10719;SDS011;5411;58.386;15.560;2023-01-16T00:54:24;2.27;;;1.10;;
10719;SDS011;5411;58.386;15.560;2023-01-16T00:56:53;3.10;;;1.07;;
10719;SDS011;5411;58.386;15.560;2023-01-16T00:59:21;1.43;;;0.80;;
10719;SDS011;5411;58.386;15.560;2023-01-16T01:01:49;1.10;;;1.00;;
10719;SDS011;5411;58.386;15.560;2023-01-16T01:04:18;1.73;;;0.83;;
10719;SDS011;5411;58.386;15.560;2023-01-16T01:06:48;1.20;;;0.87;;
10719;SDS011;5411;58.386;15.560;2023-01-16T01:09:17;2.83;;;1.10;;
10719;SDS011;5411;58.386;15.560;2023-01-16T01:11:45;0.70;;;0.70;;
10719;SDS011;5411;58.386;15.560;2023-01-16T01:14:15;2.20;;;1.27;;
10719;SDS011;5411;58.386;15.560;2023-01-16T01:16:44;2.13;;;0.80;;
10719;SDS011;5411;58.386;15.560;2023-01-16T01:19:13;2.47;;;0.90;;
10719;SDS011;5411;58.386;15.560;2023-01-16T01:21:43;3.10;;;1.20;;
10719;SDS011;5411;58.386;15.560;2023-01-16T01:24:13;1.97;;;0.77;;
10719;SDS011;5411;58.386;15.560;2023-01-16T01:26:42;0.90;;;0.83;;
10719;SDS011;5411;58.386;15.560;2023-01-16T01:29:10;1.43;;;1.17;;
10719;SDS011;5411;58.386;15.560;2023-01-16T01:31:45;1.03;;;0.80;;
10719;SDS011;5411;58.386;15.560;2023-01-16T01:34:14;1.80;;;1.07;;
10719;SDS011;5411;58.386;15.560;2023-01-16T01:36:44;1.47;;;0.93;;
10719;SDS011;5411;58.386;15.560;2023-01-16T01:39:14;6.00;;;1.20;;
10719;SDS011;5411;58.386;15.560;2023-01-16T01:41:43;0.97;;;0.93;;
10719;SDS011;5411;58.386;15.560;2023-01-16T01:47:17;2.03;;;0.83;;
10719;SDS011;5411;58.386;15.560;2023-01-16T01:49:49;1.77;;;0.90;;
10719;SDS011;5411;58.386;15.560;2023-01-16T01:52:18;1.03;;;0.97;;
10719;SDS011;5411;58.386;15.560;2023-01-16T01:54:50;1.37;;;1.00;;
10719;SDS011;5411;58.386;15.560;2023-01-16T01:57:24;1.40;;;0.80;;
10719;SDS011;5411;58.386;15.560;2023-01-16T01:59:55;1.30;;;0.73;;
10719;SDS011;5411;58.386;15.560;2023-01-16T02:02:29;1.37;;;0.90;;
10719;SDS011;5411;58.386;15.560;2023-01-16T02:05:03;3.43;;;1.10;;
10719;SDS011;5411;58.386;15.560;2023-01-16T02:07:34;1.93;;;0.80;;
10719;SDS011;5411;58.386;15.560;2023-01-16T02:10:08;0.70;;;0.67;;
10719;SDS011;5411;58.386;15.560;2023-01-16T02:12:43;2.23;;;0.93;;
10719;SDS011;5411;58.386;15.560;2023-01-16T02:15:11;1.10;;;0.80;;
10719;SDS011;5411;58.386;15.560;2023-01-16T02:17:42;1.93;;;0.90;;
10719;SDS011;5411;58.386;15.560;2023-01-16T02:20:29;2.83;;;1.00;;
10719;SDS011;5411;58.386;15.560;2023-01-16T02:23:10;1.33;;;0.80;;
10719;SDS011;5411;58.386;15.560;2023-01-16T02:32:34;2.13;;;0.90;;
10719;SDS011;5411;58.386;15.560;2023-01-16T02:35:20;1.03;;;0.97;;
10719;SDS011;5411;58.386;15.560;2023-01-16T02:37:59;2.73;;;0.80;;
10719;SDS011;5411;58.386;15.560;2023-01-16T02:40:36;2.43;;;0.80;;
10719;SDS011;5411;58.386;15.560;2023-01-16T02:43:14;1.20;;;0.80;;
10719;SDS011;5411;58.386;15.560;2023-01-16T02:45:51;1.67;;;0.87;;
10719;SDS011;5411;58.386;15.560;2023-01-16T02:48:28;0.80;;;0.80;;
10719;SDS011;5411;58.386;15.560;2023-01-16T02:51:10;2.83;;;0.90;;
10719;SDS011;5411;58.386;15.560;2023-01-16T02:53:44;1.40;;;1.00;;
10719;SDS011;5411;58.386;15.560;2023-01-16T02:56:17;2.60;;;0.80;;
10719;SDS011;5411;58.386;15.560;2023-01-16T02:58:50;3.10;;;0.90;;
10719;SDS011;5411;58.386;15.560;2023-01-16T03:01:20;1.27;;;0.77;;
10719;SDS011;5411;58.386;15.560;2023-01-16T03:04:02;0.77;;;0.73;;
10719;SDS011;5411;58.386;15.560;2023-01-16T03:06:38;2.40;;;1.00;;
10719;SDS011;5411;58.386;15.560;2023-01-16T03:09:24;2.47;;;1.00;;
10719;SDS011;5411;58.386;15.560;2023-01-16T03:12:10;3.97;;;1.00;;
10719;SDS011;5411;58.386;15.560;2023-01-16T03:14:55;1.33;;;1.20;;
10719;SDS011;5411;58.386;15.560;2023-01-16T03:17:39;2.50;;;1.20;;
10719;SDS011;5411;58.386;15.560;2023-01-16T03:20:25;3.13;;;1.27;;
10719;SDS011;5411;58.386;15.560;2023-01-16T03:23:05;2.77;;;1.27;;
10719;SDS011;5411;58.386;15.560;2023-01-16T03:25:40;2.33;;;0.83;;
10719;SDS011;5411;58.386;15.560;2023-01-16T03:28:14;3.97;;;1.80;;
10719;SDS011;5411;58.386;15.560;2023-01-16T03:30:55;2.83;;;1.20;;
10719;SDS011;5411;58.386;15.560;2023-01-16T03:33:35;4.30;;;1.20;;
10719;SDS011;5411;58.386;15.560;2023-01-16T03:36:12;5.77;;;1.23;;
10719;SDS011;5411;58.386;15.560;2023-01-16T03:38:45;4.10;;;1.20;;
10719;SDS011;5411;58.386;15.560;2023-01-16T03:41:17;2.23;;;1.27;;
10719;SDS011;5411;58.386;15.560;2023-01-16T03:43:50;4.07;;;1.67;;
10719;SDS011;5411;58.386;15.560;2023-01-16T03:46:26;4.53;;;1.07;;
10719;SDS011;5411;58.386;15.560;2023-01-16T03:48:58;4.00;;;1.77;;
10719;SDS011;5411;58.386;15.560;2023-01-16T03:51:32;4.57;;;1.47;;
10719;SDS011;5411;58.386;15.560;2023-01-16T03:54:05;3.80;;;1.43;;
10719;SDS011;5411;58.386;15.560;2023-01-16T03:56:38;1.33;;;0.90;;
10719;SDS011;5411;58.386;15.560;2023-01-16T03:59:13;5.50;;;1.10;;
10719;SDS011;5411;58.386;15.560;2023-01-16T04:01:43;1.83;;;1.00;;
10719;SDS011;5411;58.386;15.560;2023-01-16T04:04:24;2.80;;;0.80;;
10719;SDS011;5411;58.386;15.560;2023-01-16T04:06:59;3.60;;;1.30;;
10719;SDS011;5411;58.386;15.560;2023-01-16T04:09:34;3.03;;;1.27;;
10719;SDS011;5411;58.386;15.560;2023-01-16T04:12:06;5.83;;;1.40;;
10719;SDS011;5411;58.386;15.560;2023-01-16T04:14:37;1.90;;;1.00;;
10719;SDS011;5411;58.386;15.560;2023-01-16T04:17:08;3.57;;;1.27;;
10719;SDS011;5411;58.386;15.560;2023-01-16T04:19:37;4.93;;;1.40;;
10719;SDS011;5411;58.386;15.560;2023-01-16T04:22:07;1.60;;;1.00;;
10719;SDS011;5411;58.386;15.560;2023-01-16T04:24:38;2.37;;;1.50;;
10719;SDS011;5411;58.386;15.560;2023-01-16T04:27:07;3.07;;;1.20;;
10719;SDS011;5411;58.386;15.560;2023-01-16T04:29:36;4.83;;;1.10;;
10719;SDS011;5411;58.386;15.560;2023-01-16T04:32:04;2.53;;;1.20;;
10719;SDS011;5411;58.386;15.560;2023-01-16T04:34:33;5.20;;;1.40;;
10719;SDS011;5411;58.386;15.560;2023-01-16T04:37:02;6.87;;;1.50;;
10719;SDS011;5411;58.386;15.560;2023-01-16T04:39:32;1.83;;;1.20;;
10719;SDS011;5411;58.386;15.560;2023-01-16T04:42:03;2.03;;;0.90;;
10719;SDS011;5411;58.386;15.560;2023-01-16T04:44:31;4.40;;;2.60;;
10719;SDS011;5411;58.386;15.560;2023-01-16T04:47:00;1.87;;;0.80;;
10719;SDS011;5411;58.386;15.560;2023-01-16T04:49:28;3.17;;;1.20;;
10719;SDS011;5411;58.386;15.560;2023-01-16T04:51:56;3.97;;;1.50;;
10719;SDS011;5411;58.386;15.560;2023-01-16T04:54:25;3.67;;;1.30;;
10719;SDS011;5411;58.386;15.560;2023-01-16T04:56:55;3.53;;;1.17;;
10719;SDS011;5411;58.386;15.560;2023-01-16T05:02:30;3.87;;;1.10;;
10719;SDS011;5411;58.386;15.560;2023-01-16T05:04:58;5.83;;;1.67;;
10719;SDS011;5411;58.386;15.560;2023-01-16T05:07:27;3.87;;;1.10;;
10719;SDS011;5411;58.386;15.560;2023-01-16T05:09:55;2.80;;;0.90;;
10719;SDS011;5411;58.386;15.560;2023-01-16T05:12:25;4.17;;;1.20;;
10719;SDS011;5411;58.386;15.560;2023-01-16T05:14:53;4.73;;;1.60;;
10719;SDS011;5411;58.386;15.560;2023-01-16T05:17:23;3.60;;;0.97;;
10719;SDS011;5411;58.386;15.560;2023-01-16T05:19:53;6.87;;;1.30;;
10719;SDS011;5411;58.386;15.560;2023-01-16T05:22:26;7.27;;;1.43;;
10719;SDS011;5411;58.386;15.560;2023-01-16T05:24:55;5.60;;;1.40;;
10719;SDS011;5411;58.386;15.560;2023-01-16T05:27:23;6.77;;;1.33;;
10719;SDS011;5411;58.386;15.560;2023-01-16T05:29:53;4.33;;;1.57;;
10719;SDS011;5411;58.386;15.560;2023-01-16T05:32:21;2.97;;;1.17;;
10719;SDS011;5411;58.386;15.560;2023-01-16T05:34:51;5.60;;;1.40;;
10719;SDS011;5411;58.386;15.560;2023-01-16T05:37:19;5.27;;;1.40;;
10719;SDS011;5411;58.386;15.560;2023-01-16T05:39:48;2.90;;;1.50;;
10719;SDS011;5411;58.386;15.560;2023-01-16T05:42:17;3.80;;;1.47;;
10719;SDS011;5411;58.386;15.560;2023-01-16T05:44:48;5.40;;;1.13;;
10719;SDS011;5411;58.386;15.560;2023-01-16T05:47:18;7.40;;;2.03;;
10719;SDS011;5411;58.386;15.560;2023-01-16T05:49:48;7.20;;;1.50;;
10719;SDS011;5411;58.386;15.560;2023-01-16T05:52:16;5.33;;;1.70;;
10719;SDS011;5411;58.386;15.560;2023-01-16T05:54:44;5.53;;;1.30;;
10719;SDS011;5411;58.386;15.560;2023-01-16T05:57:13;4.23;;;1.83;;
10719;SDS011;5411;58.386;15.560;2023-01-16T05:59:41;4.17;;;1.30;;
10719;SDS011;5411;58.386;15.560;2023-01-16T06:02:12;3.60;;;1.30;;
10719;SDS011;5411;58.386;15.560;2023-01-16T06:04:41;5.03;;;1.30;;
10719;SDS011;5411;58.386;15.560;2023-01-16T06:07:12;7.03;;;1.50;;
10719;SDS011;5411;58.386;15.560;2023-01-16T06:09:41;3.47;;;1.30;;
10719;SDS011;5411;58.386;15.560;2023-01-16T06:12:11;6.27;;;1.47;;
10719;SDS011;5411;58.386;15.560;2023-01-16T06:14:42;5.17;;;1.50;;
10719;SDS011;5411;58.386;15.560;2023-01-16T06:17:14;3.53;;;1.50;;
10719;SDS011;5411;58.386;15.560;2023-01-16T06:19:44;1.83;;;1.30;;
10719;SDS011;5411;58.386;15.560;2023-01-16T06:22:13;5.13;;;1.30;;
10719;SDS011;5411;58.386;15.560;2023-01-16T06:24:42;7.40;;;1.57;;
10719;SDS011;5411;58.386;15.560;2023-01-16T06:27:11;5.80;;;1.63;;
10719;SDS011;5411;58.386;15.560;2023-01-16T06:29:39;7.20;;;1.63;;
10719;SDS011;5411;58.386;15.560;2023-01-16T06:32:08;4.87;;;1.70;;
10719;SDS011;5411;58.386;15.560;2023-01-16T06:34:37;5.63;;;1.63;;
10719;SDS011;5411;58.386;15.560;2023-01-16T06:37:07;2.87;;;2.03;;
10719;SDS011;5411;58.386;15.560;2023-01-16T06:39:35;7.83;;;1.50;;
10719;SDS011;5411;58.386;15.560;2023-01-16T06:42:04;6.67;;;1.87;;
10719;SDS011;5411;58.386;15.560;2023-01-16T06:44:33;10.50;;;1.83;;
10719;SDS011;5411;58.386;15.560;2023-01-16T06:47:01;6.47;;;1.50;;
10719;SDS011;5411;58.386;15.560;2023-01-16T06:49:37;4.30;;;1.20;;
10719;SDS011;5411;58.386;15.560;2023-01-16T06:52:07;9.00;;;1.53;;
10719;SDS011;5411;58.386;15.560;2023-01-16T06:54:35;3.43;;;1.73;;
10719;SDS011;5411;58.386;15.560;2023-01-16T06:57:04;3.47;;;1.10;;
10719;SDS011;5411;58.386;15.560;2023-01-16T06:59:33;5.43;;;2.00;;
10719;SDS011;5411;58.386;15.560;2023-01-16T07:02:02;6.23;;;1.40;;
10719;SDS011;5411;58.386;15.560;2023-01-16T07:04:32;5.50;;;1.50;;
10719;SDS011;5411;58.386;15.560;2023-01-16T07:07:01;4.43;;;1.87;;
10719;SDS011;5411;58.386;15.560;2023-01-16T07:09:31;7.47;;;1.57;;
10719;SDS011;5411;58.386;15.560;2023-01-16T07:11:59;6.47;;;1.60;;
10719;SDS011;5411;58.386;15.560;2023-01-16T07:14:27;11.17;;;1.97;;
10719;SDS011;5411;58.386;15.560;2023-01-16T07:17:13;3.37;;;1.47;;
10719;SDS011;5411;58.386;15.560;2023-01-16T07:20:02;3.53;;;1.50;;
10719;SDS011;5411;58.386;15.560;2023-01-16T07:22:48;7.67;;;1.53;;
10719;SDS011;5411;58.386;15.560;2023-01-16T07:25:19;4.90;;;1.27;;
10719;SDS011;5411;58.386;15.560;2023-01-16T07:27:49;9.00;;;1.73;;
10719;SDS011;5411;58.386;15.560;2023-01-16T07:30:18;5.13;;;1.63;;
10719;SDS011;5411;58.386;15.560;2023-01-16T07:32:48;6.60;;;1.77;;
10719;SDS011;5411;58.386;15.560;2023-01-16T07:35:19;5.10;;;1.53;;
10719;SDS011;5411;58.386;15.560;2023-01-16T07:37:48;4.73;;;1.93;;
10719;SDS011;5411;58.386;15.560;2023-01-16T07:40:19;8.17;;;2.07;;
10719;SDS011;5411;58.386;15.560;2023-01-16T07:42:49;3.67;;;1.23;;
10719;SDS011;5411;58.386;15.560;2023-01-16T07:45:18;8.33;;;1.70;;
10719;SDS011;5411;58.386;15.560;2023-01-16T07:47:47;7.20;;;2.40;;
10719;SDS011;5411;58.386;15.560;2023-01-16T07:50:15;4.00;;;1.93;;
10719;SDS011;5411;58.386;15.560;2023-01-16T07:52:44;6.77;;;1.70;;
10719;SDS011;5411;58.386;15.560;2023-01-16T07:55:13;5.93;;;1.50;;
10719;SDS011;5411;58.386;15.560;2023-01-16T07:57:44;6.73;;;2.00;;
10719;SDS011;5411;58.386;15.560;2023-01-16T08:00:13;10.03;;;2.03;;
10719;SDS011;5411;58.386;15.560;2023-01-16T08:02:42;6.07;;;2.10;;
10719;SDS011;5411;58.386;15.560;2023-01-16T08:05:11;5.67;;;2.20;;
10719;SDS011;5411;58.386;15.560;2023-01-16T08:07:40;3.70;;;1.93;;
10719;SDS011;5411;58.386;15.560;2023-01-16T08:10:09;11.73;;;2.40;;
10719;SDS011;5411;58.386;15.560;2023-01-16T08:12:38;6.00;;;2.00;;
10719;SDS011;5411;58.386;15.560;2023-01-16T08:15:09;6.83;;;1.80;;
10719;SDS011;5411;58.386;15.560;2023-01-16T08:17:38;9.00;;;2.40;;
10719;SDS011;5411;58.386;15.560;2023-01-16T08:20:08;9.90;;;2.70;;
10719;SDS011;5411;58.386;15.560;2023-01-16T08:22:41;9.00;;;2.03;;
10719;SDS011;5411;58.386;15.560;2023-01-16T08:25:11;8.70;;;1.90;;
10719;SDS011;5411;58.386;15.560;2023-01-16T08:27:40;6.57;;;2.03;;
10719;SDS011;5411;58.386;15.560;2023-01-16T08:30:11;10.10;;;2.97;;
10719;SDS011;5411;58.386;15.560;2023-01-16T08:32:40;10.97;;;2.80;;
10719;SDS011;5411;58.386;15.560;2023-01-16T08:35:10;7.83;;;2.00;;
10719;SDS011;5411;58.386;15.560;2023-01-16T08:37:38;9.13;;;2.20;;
10719;SDS011;5411;58.386;15.560;2023-01-16T08:40:15;5.20;;;2.00;;
10719;SDS011;5411;58.386;15.560;2023-01-16T08:42:44;12.27;;;2.40;;
10719;SDS011;5411;58.386;15.560;2023-01-16T08:45:31;6.80;;;2.17;;
10719;SDS011;5411;58.386;15.560;2023-01-16T08:48:19;10.93;;;2.13;;
10719;SDS011;5411;58.386;15.560;2023-01-16T08:51:13;15.10;;;2.80;;
10719;SDS011;5411;58.386;15.560;2023-01-16T08:53:49;2.73;;;1.60;;
10719;SDS011;5411;58.386;15.560;2023-01-16T08:56:18;5.90;;;2.13;;
10719;SDS011;5411;58.386;15.560;2023-01-16T08:58:47;6.63;;;2.10;;
10719;SDS011;5411;58.386;15.560;2023-01-16T09:01:17;10.67;;;2.27;;
10719;SDS011;5411;58.386;15.560;2023-01-16T09:03:47;9.13;;;2.30;;
10719;SDS011;5411;58.386;15.560;2023-01-16T09:06:16;6.93;;;1.97;;
10719;SDS011;5411;58.386;15.560;2023-01-16T09:08:44;8.57;;;2.20;;
10719;SDS011;5411;58.386;15.560;2023-01-16T09:11:12;8.80;;;2.40;;
10719;SDS011;5411;58.386;15.560;2023-01-16T09:13:58;9.63;;;2.30;;
10719;SDS011;5411;58.386;15.560;2023-01-16T09:16:35;10.63;;;2.60;;
10719;SDS011;5411;58.386;15.560;2023-01-16T09:19:04;12.13;;;2.23;;
10719;SDS011;5411;58.386;15.560;2023-01-16T09:21:33;10.03;;;2.43;;
10719;SDS011;5411;58.386;15.560;2023-01-16T09:24:04;6.57;;;2.30;;
10719;SDS011;5411;58.386;15.560;2023-01-16T09:26:34;12.23;;;2.37;;
10719;SDS011;5411;58.386;15.560;2023-01-16T09:29:02;14.27;;;2.90;;
10719;SDS011;5411;58.386;15.560;2023-01-16T09:31:30;7.87;;;2.60;;
10719;SDS011;5411;58.386;15.560;2023-01-16T09:34:00;9.10;;;2.27;;
10719;SDS011;5411;58.386;15.560;2023-01-16T09:36:30;9.00;;;2.97;;
10719;SDS011;5411;58.386;15.560;2023-01-16T09:39:01;9.57;;;2.47;;
10719;SDS011;5411;58.386;15.560;2023-01-16T09:41:39;9.50;;;2.10;;
10719;SDS011;5411;58.386;15.560;2023-01-16T09:44:34;11.90;;;2.10;;
10719;SDS011;5411;58.386;15.560;2023-01-16T09:47:03;15.73;;;3.17;;
10719;SDS011;5411;58.386;15.560;2023-01-16T09:49:36;8.27;;;2.47;;
10719;SDS011;5411;58.386;15.560;2023-01-16T09:52:14;9.63;;;2.60;;
10719;SDS011;5411;58.386;15.560;2023-01-16T09:55:16;10.90;;;2.47;;
10719;SDS011;5411;58.386;15.560;2023-01-16T09:58:07;7.90;;;1.97;;
10719;SDS011;5411;58.386;15.560;2023-01-16T10:00:59;11.70;;;2.63;;
10719;SDS011;5411;58.386;15.560;2023-01-16T10:03:28;7.57;;;2.03;;
10719;SDS011;5411;58.386;15.560;2023-01-16T10:06:02;5.93;;;2.00;;
10719;SDS011;5411;58.386;15.560;2023-01-16T10:08:41;8.43;;;2.40;;
10719;SDS011;5411;58.386;15.560;2023-01-16T10:11:21;9.57;;;2.37;;
10719;SDS011;5411;58.386;15.560;2023-01-16T10:13:54;7.27;;;2.30;;
10719;SDS011;5411;58.386;15.560;2023-01-16T10:16:47;6.50;;;1.90;;
10719;SDS011;5411;58.386;15.560;2023-01-16T10:19:31;7.23;;;1.83;;
10719;SDS011;5411;58.386;15.560;2023-01-16T10:22:15;7.57;;;2.17;;
10719;SDS011;5411;58.386;15.560;2023-01-16T10:25:00;7.33;;;2.23;;
10719;SDS011;5411;58.386;15.560;2023-01-16T10:27:43;8.40;;;3.33;;
10719;SDS011;5411;58.386;15.560;2023-01-16T10:30:23;3.83;;;2.10;;
10719;SDS011;5411;58.386;15.560;2023-01-16T10:32:57;7.00;;;2.03;;
10719;SDS011;5411;58.386;15.560;2023-01-16T10:35:32;9.80;;;2.43;;
10719;SDS011;5411;58.386;15.560;2023-01-16T10:38:12;9.73;;;2.13;;
10719;SDS011;5411;58.386;15.560;2023-01-16T10:40:49;7.33;;;2.00;;
10719;SDS011;5411;58.386;15.560;2023-01-16T10:43:23;8.83;;;2.37;;
10719;SDS011;5411;58.386;15.560;2023-01-16T10:46:18;12.20;;;2.50;;
10719;SDS011;5411;58.386;15.560;2023-01-16T10:49:18;11.70;;;2.63;;
10719;SDS011;5411;58.386;15.560;2023-01-16T10:51:56;5.50;;;1.77;;
10719;SDS011;5411;58.386;15.560;2023-01-16T10:54:29;11.17;;;2.17;;
10719;SDS011;5411;58.386;15.560;2023-01-16T10:57:07;6.33;;;2.30;;
10719;SDS011;5411;58.386;15.560;2023-01-16T10:59:43;4.03;;;1.77;;
10719;SDS011;5411;58.386;15.560;2023-01-16T11:02:16;5.80;;;1.80;;
10719;SDS011;5411;58.386;15.560;2023-01-16T11:04:49;9.33;;;2.20;;
10719;SDS011;5411;58.386;15.560;2023-01-16T11:07:18;9.67;;;2.40;;
10719;SDS011;5411;58.386;15.560;2023-01-16T11:09:49;5.17;;;1.67;;
10719;SDS011;5411;58.386;15.560;2023-01-16T11:12:21;8.00;;;2.33;;
10719;SDS011;5411;58.386;15.560;2023-01-16T11:15:12;8.37;;;2.20;;
10719;SDS011;5411;58.386;15.560;2023-01-16T11:18:01;8.23;;;1.87;;
10719;SDS011;5411;58.386;15.560;2023-01-16T11:20:47;5.90;;;2.30;;
10719;SDS011;5411;58.386;15.560;2023-01-16T11:23:18;5.50;;;1.70;;
10719;SDS011;5411;58.386;15.560;2023-01-16T11:25:50;7.00;;;1.70;;
10719;SDS011;5411;58.386;15.560;2023-01-16T11:28:22;5.53;;;2.13;;
10719;SDS011;5411;58.386;15.560;2023-01-16T11:30:54;8.60;;;1.83;;
10719;SDS011;5411;58.386;15.560;2023-01-16T11:33:25;3.67;;;1.60;;
10719;SDS011;5411;58.386;15.560;2023-01-16T11:36:07;10.77;;;2.47;;
10719;SDS011;5411;58.386;15.560;2023-01-16T11:38:37;6.70;;;1.80;;
10719;SDS011;5411;58.386;15.560;2023-01-16T11:41:12;8.77;;;2.20;;
10719;SDS011;5411;58.386;15.560;2023-01-16T11:43:50;4.77;;;1.80;;
10719;SDS011;5411;58.386;15.560;2023-01-16T11:46:56;8.20;;;2.03;;
10719;SDS011;5411;58.386;15.560;2023-01-16T11:49:27;6.43;;;2.27;;
10719;SDS011;5411;58.386;15.560;2023-01-16T11:52:01;8.60;;;1.93;;
10719;SDS011;5411;58.386;15.560;2023-01-16T11:54:31;6.33;;;1.70;;
10719;SDS011;5411;58.386;15.560;2023-01-16T11:57:07;8.37;;;2.90;;
10719;SDS011;5411;58.386;15.560;2023-01-16T11:59:55;7.70;;;1.73;;
10719;SDS011;5411;58.386;15.560;2023-01-16T12:02:52;9.77;;;2.30;;
10719;SDS011;5411;58.386;15.560;2023-01-16T12:05:34;9.97;;;1.80;;
10719;SDS011;5411;58.386;15.560;2023-01-16T12:11:43;10.43;;;1.77;;
10719;SDS011;5411;58.386;15.560;2023-01-16T12:14:27;7.93;;;2.07;;
10719;SDS011;5411;58.386;15.560;2023-01-16T12:17:02;7.03;;;2.17;;
10719;SDS011;5411;58.386;15.560;2023-01-16T12:19:47;7.50;;;2.07;;
10719;SDS011;5411;58.386;15.560;2023-01-16T12:22:46;4.17;;;2.10;;
10719;SDS011;5411;58.386;15.560;2023-01-16T12:25:45;3.80;;;1.73;;
10719;SDS011;5411;58.386;15.560;2023-01-16T12:28:26;5.53;;;1.63;;
10719;SDS011;5411;58.386;15.560;2023-01-16T12:31:05;4.63;;;1.80;;
10719;SDS011;5411;58.386;15.560;2023-01-16T12:34:00;4.27;;;1.77;;
10719;SDS011;5411;58.386;15.560;2023-01-16T12:36:40;6.80;;;2.10;;
10719;SDS011;5411;58.386;15.560;2023-01-16T12:39:18;3.97;;;1.30;;
10719;SDS011;5411;58.386;15.560;2023-01-16T12:41:59;5.53;;;2.00;;
10719;SDS011;5411;58.386;15.560;2023-01-16T12:45:05;7.13;;;2.00;;
10719;SDS011;5411;58.386;15.560;2023-01-16T12:47:48;6.17;;;1.67;;
10719;SDS011;5411;58.386;15.560;2023-01-16T12:50:32;4.27;;;1.47;;
10719;SDS011;5411;58.386;15.560;2023-01-16T12:53:20;5.23;;;1.37;;
10719;SDS011;5411;58.386;15.560;2023-01-16T12:56:03;7.90;;;2.00;;
10719;SDS011;5411;58.386;15.560;2023-01-16T12:58:50;4.30;;;1.60;;
10719;SDS011;5411;58.386;15.560;2023-01-16T13:01:24;3.73;;;2.00;;
10719;SDS011;5411;58.386;15.560;2023-01-16T13:04:00;8.33;;;3.13;;
10719;SDS011;5411;58.386;15.560;2023-01-16T13:06:40;5.77;;;1.70;;
10719;SDS011;5411;58.386;15.560;2023-01-16T13:09:15;4.70;;;1.73;;
10719;SDS011;5411;58.386;15.560;2023-01-16T13:11:57;9.10;;;1.90;;
10719;SDS011;5411;58.386;15.560;2023-01-16T13:14:49;7.33;;;1.83;;
10719;SDS011;5411;58.386;15.560;2023-01-16T13:17:23;2.33;;;1.30;;
10719;SDS011;5411;58.386;15.560;2023-01-16T13:19:58;4.47;;;1.70;;
10719;SDS011;5411;58.386;15.560;2023-01-16T13:22:34;3.43;;;1.50;;
10719;SDS011;5411;58.386;15.560;2023-01-16T13:25:12;7.47;;;2.07;;
10719;SDS011;5411;58.386;15.560;2023-01-16T13:27:48;7.37;;;1.90;;
10719;SDS011;5411;58.386;15.560;2023-01-16T13:30:23;5.67;;;2.13;;
10719;SDS011;5411;58.386;15.560;2023-01-16T13:32:52;4.47;;;1.50;;
10719;SDS011;5411;58.386;15.560;2023-01-16T13:35:32;4.07;;;1.20;;
10719;SDS011;5411;58.386;15.560;2023-01-16T13:41:11;3.47;;;1.57;;
10719;SDS011;5411;58.386;15.560;2023-01-16T13:43:43;6.50;;;1.60;;
10719;SDS011;5411;58.386;15.560;2023-01-16T13:46:35;9.33;;;2.03;;
10719;SDS011;5411;58.386;15.560;2023-01-16T13:49:11;7.60;;;2.00;;
10719;SDS011;5411;58.386;15.560;2023-01-16T13:51:48;5.73;;;1.80;;
10719;SDS011;5411;58.386;15.560;2023-01-16T13:54:19;5.23;;;1.60;;
10719;SDS011;5411;58.386;15.560;2023-01-16T13:56:57;4.63;;;1.27;;
10719;SDS011;5411;58.386;15.560;2023-01-16T13:59:38;2.33;;;1.33;;
10719;SDS011;5411;58.386;15.560;2023-01-16T14:02:25;5.57;;;1.60;;
10719;SDS011;5411;58.386;15.560;2023-01-16T14:08:16;7.93;;;1.70;;
10719;SDS011;5411;58.386;15.560;2023-01-16T14:11:14;5.67;;;1.57;;
10719;SDS011;5411;58.386;15.560;2023-01-16T14:17:13;2.97;;;1.30;;
10719;SDS011;5411;58.386;15.560;2023-01-16T14:19:50;3.20;;;1.87;;
10719;SDS011;5411;58.386;15.560;2023-01-16T14:22:21;6.67;;;1.60;;
10719;SDS011;5411;58.386;15.560;2023-01-16T14:25:20;4.90;;;1.80;;
10719;SDS011;5411;58.386;15.560;2023-01-16T14:27:51;3.07;;;1.40;;
10719;SDS011;5411;58.386;15.560;2023-01-16T14:30:24;6.50;;;2.10;;
10719;SDS011;5411;58.386;15.560;2023-01-16T14:32:54;6.53;;;1.70;;
10719;SDS011;5411;58.386;15.560;2023-01-16T14:35:52;4.97;;;1.37;;
10719;SDS011;5411;58.386;15.560;2023-01-16T14:38:27;4.00;;;1.70;;
10719;SDS011;5411;58.386;15.560;2023-01-16T14:41:03;4.00;;;1.43;;
10719;SDS011;5411;58.386;15.560;2023-01-16T14:44:11;3.83;;;1.77;;
10719;SDS011;5411;58.386;15.560;2023-01-16T14:47:07;5.73;;;1.50;;
10719;SDS011;5411;58.386;15.560;2023-01-16T14:50:08;6.67;;;1.90;;
10719;SDS011;5411;58.386;15.560;2023-01-16T14:53:11;8.70;;;1.70;;
10719;SDS011;5411;58.386;15.560;2023-01-16T14:56:04;3.50;;;1.87;;
10719;SDS011;5411;58.386;15.560;2023-01-16T14:58:41;5.87;;;1.60;;
10719;SDS011;5411;58.386;15.560;2023-01-16T15:01:16;7.90;;;2.03;;
10719;SDS011;5411;58.386;15.560;2023-01-16T15:04:08;2.57;;;1.30;;
10719;SDS011;5411;58.386;15.560;2023-01-16T15:06:39;6.03;;;1.80;;
10719;SDS011;5411;58.386;15.560;2023-01-16T15:09:15;5.03;;;1.87;;
10719;SDS011;5411;58.386;15.560;2023-01-16T15:11:49;4.13;;;1.50;;
10719;SDS011;5411;58.386;15.560;2023-01-16T15:14:28;5.37;;;1.50;;
10719;SDS011;5411;58.386;15.560;2023-01-16T15:17:04;3.60;;;1.50;;
10719;SDS011;5411;58.386;15.560;2023-01-16T15:23:18;4.43;;;1.57;;
10719;SDS011;5411;58.386;15.560;2023-01-16T15:25:55;3.43;;;1.40;;
10719;SDS011;5411;58.386;15.560;2023-01-16T15:28:37;4.07;;;1.50;;
10719;SDS011;5411;58.386;15.560;2023-01-16T15:31:13;5.80;;;1.50;;
10719;SDS011;5411;58.386;15.560;2023-01-16T15:33:43;3.23;;;1.60;;
10719;SDS011;5411;58.386;15.560;2023-01-16T15:36:19;6.83;;;1.60;;
10719;SDS011;5411;58.386;15.560;2023-01-16T15:38:50;5.53;;;1.50;;
10719;SDS011;5411;58.386;15.560;2023-01-16T15:41:22;6.67;;;1.93;;
10719;SDS011;5411;58.386;15.560;2023-01-16T15:44:14;3.67;;;1.87;;
10719;SDS011;5411;58.386;15.560;2023-01-16T15:47:14;6.67;;;1.60;;
10719;SDS011;5411;58.386;15.560;2023-01-16T15:50:15;2.53;;;1.60;;
10719;SDS011;5411;58.386;15.560;2023-01-16T15:52:51;4.23;;;1.40;;
10719;SDS011;5411;58.386;15.560;2023-01-16T15:55:20;4.30;;;2.23;;
10719;SDS011;5411;58.386;15.560;2023-01-16T15:57:53;3.47;;;1.20;;
10719;SDS011;5411;58.386;15.560;2023-01-16T16:00:28;3.57;;;1.67;;
10719;SDS011;5411;58.386;15.560;2023-01-16T16:03:00;4.70;;;1.47;;
10719;SDS011;5411;58.386;15.560;2023-01-16T16:05:32;3.27;;;1.30;;